CheckWX is a tool to help pilots better visualize weather data.  It is not intended as a substitute for an official pre-flight weather briefing.

16:56:17 UTC

KSTJ TAF
Rosecrans Memorial Airport
St Joseph, Missouri, USA
KSTJ 181610Z 1816/1912 VRB04KT P6SM BKN025 FM181700 15007KT P6SM SCT050 FM190000 02007KT P6SM VCTS BKN050CB FM190700 06006KT 4SM -TSRA BKN030CB

Jun-18@
16:00 UTC

Jun-18 @ 16:00 UTC

Jun-18@
17:00 UTC

Jun-18 @ 17:00 UTC

KSTJ 181610Z 1816/1912 VRB04KT P6SM BKN025
Wind
  • Variable at 4 KTS
Cloud Levels
  • Broken at 2,500' AGL

Jun-18@
17:00 UTC

Jun-18 @ 17:00 UTC

Jun-19@
00:00 UTC

Jun-19 @ 00:00 UTC

FM181700 15007KT P6SM SCT050

From

From Standard forecast or significant change

Wind
  • 150° at 7 KTS
Cloud Levels
  • Scattered at 5,000' AGL

Jun-19@
00:00 UTC

Jun-19 @ 00:00 UTC

Jun-19@
07:00 UTC

Jun-19 @ 07:00 UTC

FM190000 02007KT P6SM VCTS BKN050CB

From

From Standard forecast or significant change

Wind
  • 020° at 7 KTS
Conditions
Area Thunderstorm
Cloud Levels
  • Broken at 5,000' AGL

Jun-19@
07:00 UTC

Jun-19 @ 07:00 UTC

Jun-19@
12:00 UTC

Jun-19 @ 12:00 UTC

FM190700 06006KT 4SM -TSRA BKN030CB

From

From Standard forecast or significant change

Wind
  • 060° at 6 KTS
Conditions
Light Thunderstorm, Light Rain
Cloud Levels
  • Broken at 3,000' AGL